Pagina principale
METAR-TAF:

METAR-TAF

Aeroporti :

Aeroporto Internazionale di Teheran-Mehrabad

Teheran, Iran

latitudine: 35-41N, longitudine: 051-21E, altezza: 1204 m

Osservazione

Il bollettino è stato emesso 26 minuti fa, alle 22:30 UTC
Vento 4 kt da ovest/nord-ovest
Temperature 26°C
Umidità 24%
Pressione 1013 hPa
Visibilità 10 km o più
nessuna nube inferiore a 1500 m e nessun cumulonembo

METAR: OIII 152230Z 30004KT CAVOK 26/04 Q1013 A2992

Ora: 03:26 (22:56 UTC)

Previsione

Il bollettino è stato emesso 5 ore e 26 minuti fa, alle 17:30 UTC
Previsione valida dal 15 alle 18 UTC al 16 alle 24 UTC
Vento 8 kt da est/nord-est
Visibilità 10 km o più
nessuna nube inferiore a 1500 m e nessun cumulonembo
Temporaneamente
dal 15 alle 18 UTC al 15 alle 24 UTC
Vento 12 kt da nord/nord-ovest
Temporaneamente
dal 16 alle 12 UTC al 16 alle 18 UTC
Vento 16 kt da est/sud-est

TAF: OIII 151730Z 1518/1624 06004MPS CAVOK TEMPO 1518/1524 33006MPS TEMPO 1612/1618 12008MPS

Osservazioni e previsioni meteorologiche di più di 4000 aeroporti (messaggi METAR e TAF).

Le stazioni disponibili sono rappresentate dai dischi gialli e rossi sulla carta.

Puntare il mouse per vedere il nome della stazione.

Clicca sopra per visualizzare le osservazioni e previsioni meteorologiche.

Per cambiare la mappa : fare clic sui pulsanti verdi con una croce nera per ingrandire, il pulsante verde con un trattino per diminuire, o sulla freccia verde per le mappe adiacenti.


METAR-TAF: